sensor_id;sensor_type;location;lat;lon;timestamp;P1;durP1;ratioP1;P2;durP2;ratioP2
61523;SDS011;47393;38.758;-9.164;2023-03-16T00:01:27;24.80;;;7.68;;
61523;SDS011;47393;38.758;-9.164;2023-03-16T00:03:31;26.52;;;8.60;;
61523;SDS011;47393;38.758;-9.164;2023-03-16T00:05:36;35.88;;;9.00;;
61523;SDS011;47393;38.758;-9.164;2023-03-16T00:07:40;35.63;;;8.75;;
61523;SDS011;47393;38.758;-9.164;2023-03-16T00:09:42;29.80;;;8.38;;
61523;SDS011;47393;38.758;-9.164;2023-03-16T00:11:54;49.55;;;8.63;;
61523;SDS011;47393;38.758;-9.164;2023-03-16T00:13:55;33.97;;;8.43;;
61523;SDS011;47393;38.758;-9.164;2023-03-16T00:15:59;50.13;;;9.60;;
61523;SDS011;47393;38.758;-9.164;2023-03-16T00:18:05;38.83;;;8.85;;
61523;SDS011;47393;38.758;-9.164;2023-03-16T00:20:29;32.50;;;8.52;;
61523;SDS011;47393;38.758;-9.164;2023-03-16T00:22:32;40.22;;;8.02;;
61523;SDS011;47393;38.758;-9.164;2023-03-16T00:24:39;34.60;;;8.27;;
61523;SDS011;47393;38.758;-9.164;2023-03-16T00:26:48;22.67;;;8.45;;
61523;SDS011;47393;38.758;-9.164;2023-03-16T00:29:02;32.25;;;8.77;;
61523;SDS011;47393;38.758;-9.164;2023-03-16T00:31:05;32.80;;;7.60;;
61523;SDS011;47393;38.758;-9.164;2023-03-16T00:33:11;29.02;;;8.23;;
61523;SDS011;47393;38.758;-9.164;2023-03-16T00:35:12;19.95;;;6.88;;
61523;SDS011;47393;38.758;-9.164;2023-03-16T00:37:15;24.55;;;7.70;;
61523;SDS011;47393;38.758;-9.164;2023-03-16T00:39:18;40.92;;;9.25;;
61523;SDS011;47393;38.758;-9.164;2023-03-16T00:41:20;36.45;;;7.53;;
61523;SDS011;47393;38.758;-9.164;2023-03-16T00:43:24;39.88;;;7.45;;
61523;SDS011;47393;38.758;-9.164;2023-03-16T00:45:28;32.05;;;8.00;;
61523;SDS011;47393;38.758;-9.164;2023-03-16T00:47:31;20.70;;;7.10;;
61523;SDS011;47393;38.758;-9.164;2023-03-16T00:49:32;24.30;;;9.75;;
61523;SDS011;47393;38.758;-9.164;2023-03-16T00:51:49;28.65;;;7.47;;
61523;SDS011;47393;38.758;-9.164;2023-03-16T00:54:19;36.38;;;8.65;;
61523;SDS011;47393;38.758;-9.164;2023-03-16T00:56:49;20.42;;;7.07;;
61523;SDS011;47393;38.758;-9.164;2023-03-16T00:59:02;33.83;;;9.93;;
61523;SDS011;47393;38.758;-9.164;2023-03-16T01:01:16;30.48;;;8.85;;
61523;SDS011;47393;38.758;-9.164;2023-03-16T01:03:18;63.97;;;8.98;;
61523;SDS011;47393;38.758;-9.164;2023-03-16T01:06:23;23.75;;;8.38;;
61523;SDS011;47393;38.758;-9.164;2023-03-16T01:08:29;33.80;;;9.77;;
61523;SDS011;47393;38.758;-9.164;2023-03-16T01:13:10;19.67;;;7.40;;
61523;SDS011;47393;38.758;-9.164;2023-03-16T01:15:50;33.53;;;8.80;;
61523;SDS011;47393;38.758;-9.164;2023-03-16T01:21:14;40.55;;;8.65;;
61523;SDS011;47393;38.758;-9.164;2023-03-16T01:23:50;54.40;;;9.93;;
61523;SDS011;47393;38.758;-9.164;2023-03-16T01:26:59;21.35;;;8.18;;
61523;SDS011;47393;38.758;-9.164;2023-03-16T02:44:56;28.80;;;8.80;;
61523;SDS011;47393;38.758;-9.164;2023-03-16T02:47:10;37.88;;;9.85;;
61523;SDS011;47393;38.758;-9.164;2023-03-16T02:49:22;31.98;;;9.00;;
61523;SDS011;47393;38.758;-9.164;2023-03-16T02:51:25;57.17;;;10.70;;
61523;SDS011;47393;38.758;-9.164;2023-03-16T02:53:29;45.67;;;10.43;;
61523;SDS011;47393;38.758;-9.164;2023-03-16T02:55:35;28.95;;;9.60;;
61523;SDS011;47393;38.758;-9.164;2023-03-16T02:57:40;31.55;;;10.23;;
61523;SDS011;47393;38.758;-9.164;2023-03-16T02:59:55;27.05;;;9.88;;
61523;SDS011;47393;38.758;-9.164;2023-03-16T03:01:58;36.53;;;10.30;;
61523;SDS011;47393;38.758;-9.164;2023-03-16T03:04:11;32.53;;;9.88;;
61523;SDS011;47393;38.758;-9.164;2023-03-16T03:06:25;37.75;;;9.55;;
61523;SDS011;47393;38.758;-9.164;2023-03-16T03:08:38;27.83;;;9.38;;
61523;SDS011;47393;38.758;-9.164;2023-03-16T03:10:45;34.75;;;10.57;;
61523;SDS011;47393;38.758;-9.164;2023-03-16T03:12:52;38.35;;;10.00;;
61523;SDS011;47393;38.758;-9.164;2023-03-16T03:15:02;32.38;;;8.43;;
61523;SDS011;47393;38.758;-9.164;2023-03-16T03:17:10;39.13;;;9.52;;
61523;SDS011;47393;38.758;-9.164;2023-03-16T03:19:16;44.63;;;8.65;;
61523;SDS011;47393;38.758;-9.164;2023-03-16T03:21:19;46.47;;;9.07;;
61523;SDS011;47393;38.758;-9.164;2023-03-16T03:23:35;33.85;;;8.70;;
61523;SDS011;47393;38.758;-9.164;2023-03-16T03:25:41;40.33;;;9.43;;
61523;SDS011;47393;38.758;-9.164;2023-03-16T03:27:47;40.42;;;9.75;;
61523;SDS011;47393;38.758;-9.164;2023-03-16T03:29:54;50.15;;;9.30;;
61523;SDS011;47393;38.758;-9.164;2023-03-16T03:31:59;42.17;;;9.80;;
61523;SDS011;47393;38.758;-9.164;2023-03-16T03:34:02;43.80;;;10.25;;
61523;SDS011;47393;38.758;-9.164;2023-03-16T03:36:09;37.53;;;9.50;;
61523;SDS011;47393;38.758;-9.164;2023-03-16T03:38:16;32.08;;;9.45;;
61523;SDS011;47393;38.758;-9.164;2023-03-16T03:40:22;29.52;;;8.63;;
61523;SDS011;47393;38.758;-9.164;2023-03-16T03:42:29;52.28;;;9.48;;
61523;SDS011;47393;38.758;-9.164;2023-03-16T03:44:31;33.75;;;9.40;;
61523;SDS011;47393;38.758;-9.164;2023-03-16T03:46:34;54.70;;;10.30;;
61523;SDS011;47393;38.758;-9.164;2023-03-16T03:48:35;45.05;;;10.13;;
61523;SDS011;47393;38.758;-9.164;2023-03-16T03:50:39;42.00;;;9.30;;
61523;SDS011;47393;38.758;-9.164;2023-03-16T03:53:01;32.67;;;8.52;;
61523;SDS011;47393;38.758;-9.164;2023-03-16T03:55:07;34.45;;;8.75;;
61523;SDS011;47393;38.758;-9.164;2023-03-16T03:57:09;37.97;;;9.13;;
61523;SDS011;47393;38.758;-9.164;2023-03-16T03:59:13;35.45;;;9.88;;
61523;SDS011;47393;38.758;-9.164;2023-03-16T04:01:48;27.17;;;8.68;;
61523;SDS011;47393;38.758;-9.164;2023-03-16T04:03:58;43.53;;;9.65;;
61523;SDS011;47393;38.758;-9.164;2023-03-16T04:06:02;34.58;;;8.57;;
61523;SDS011;47393;38.758;-9.164;2023-03-16T04:08:10;54.10;;;10.90;;
61523;SDS011;47393;38.758;-9.164;2023-03-16T04:10:12;33.83;;;8.93;;
61523;SDS011;47393;38.758;-9.164;2023-03-16T04:12:25;38.75;;;10.05;;
61523;SDS011;47393;38.758;-9.164;2023-03-16T04:14:32;51.78;;;10.45;;
61523;SDS011;47393;38.758;-9.164;2023-03-16T04:16:35;36.13;;;9.88;;
61523;SDS011;47393;38.758;-9.164;2023-03-16T04:18:36;40.90;;;10.07;;
61523;SDS011;47393;38.758;-9.164;2023-03-16T04:20:43;41.28;;;11.05;;
61523;SDS011;47393;38.758;-9.164;2023-03-16T04:22:49;44.63;;;9.85;;
61523;SDS011;47393;38.758;-9.164;2023-03-16T04:24:57;53.97;;;10.48;;
61523;SDS011;47393;38.758;-9.164;2023-03-16T04:27:01;41.28;;;9.80;;
61523;SDS011;47393;38.758;-9.164;2023-03-16T04:29:02;42.70;;;11.05;;
61523;SDS011;47393;38.758;-9.164;2023-03-16T04:31:06;43.08;;;11.23;;
61523;SDS011;47393;38.758;-9.164;2023-03-16T04:33:12;47.28;;;10.45;;
61523;SDS011;47393;38.758;-9.164;2023-03-16T04:35:14;43.08;;;9.95;;
61523;SDS011;47393;38.758;-9.164;2023-03-16T04:37:21;42.13;;;11.88;;
61523;SDS011;47393;38.758;-9.164;2023-03-16T04:39:22;41.50;;;10.90;;
61523;SDS011;47393;38.758;-9.164;2023-03-16T04:41:24;51.90;;;11.77;;
61523;SDS011;47393;38.758;-9.164;2023-03-16T04:43:33;34.97;;;11.40;;
61523;SDS011;47393;38.758;-9.164;2023-03-16T04:45:50;50.30;;;12.60;;
61523;SDS011;47393;38.758;-9.164;2023-03-16T04:47:51;53.35;;;11.48;;
61523;SDS011;47393;38.758;-9.164;2023-03-16T04:49:52;35.10;;;11.02;;
61523;SDS011;47393;38.758;-9.164;2023-03-16T04:51:53;52.67;;;13.35;;
61523;SDS011;47393;38.758;-9.164;2023-03-16T04:53:55;51.17;;;11.55;;
61523;SDS011;47393;38.758;-9.164;2023-03-16T04:56:03;51.97;;;12.35;;
61523;SDS011;47393;38.758;-9.164;2023-03-16T04:58:06;60.22;;;11.77;;
61523;SDS011;47393;38.758;-9.164;2023-03-16T05:00:11;44.00;;;12.05;;
61523;SDS011;47393;38.758;-9.164;2023-03-16T05:02:46;41.05;;;10.50;;
61523;SDS011;47393;38.758;-9.164;2023-03-16T05:04:47;44.50;;;12.60;;
61523;SDS011;47393;38.758;-9.164;2023-03-16T05:06:49;52.88;;;12.75;;
61523;SDS011;47393;38.758;-9.164;2023-03-16T05:08:57;54.55;;;13.25;;
61523;SDS011;47393;38.758;-9.164;2023-03-16T05:10:58;37.05;;;11.93;;
61523;SDS011;47393;38.758;-9.164;2023-03-16T05:13:06;56.80;;;12.80;;
61523;SDS011;47393;38.758;-9.164;2023-03-16T05:15:11;40.83;;;12.82;;
61523;SDS011;47393;38.758;-9.164;2023-03-16T05:17:18;48.95;;;12.77;;
61523;SDS011;47393;38.758;-9.164;2023-03-16T05:19:20;51.00;;;12.00;;
61523;SDS011;47393;38.758;-9.164;2023-03-16T05:21:22;64.47;;;12.45;;
61523;SDS011;47393;38.758;-9.164;2023-03-16T05:23:39;60.95;;;12.77;;
61523;SDS011;47393;38.758;-9.164;2023-03-16T05:25:42;41.28;;;12.55;;
61523;SDS011;47393;38.758;-9.164;2023-03-16T05:27:49;55.33;;;12.23;;
61523;SDS011;47393;38.758;-9.164;2023-03-16T05:29:58;67.13;;;12.95;;
61523;SDS011;47393;38.758;-9.164;2023-03-16T05:32:01;61.20;;;14.20;;
61523;SDS011;47393;38.758;-9.164;2023-03-16T05:34:04;67.10;;;14.20;;
61523;SDS011;47393;38.758;-9.164;2023-03-16T05:36:05;58.38;;;14.57;;
61523;SDS011;47393;38.758;-9.164;2023-03-16T05:38:07;40.20;;;12.95;;
61523;SDS011;47393;38.758;-9.164;2023-03-16T05:40:13;57.60;;;12.75;;
61523;SDS011;47393;38.758;-9.164;2023-03-16T05:42:29;45.25;;;13.23;;
61523;SDS011;47393;38.758;-9.164;2023-03-16T05:44:33;54.47;;;13.93;;
61523;SDS011;47393;38.758;-9.164;2023-03-16T05:48:49;41.22;;;11.73;;
61523;SDS011;47393;38.758;-9.164;2023-03-16T05:50:52;44.80;;;12.32;;
61523;SDS011;47393;38.758;-9.164;2023-03-16T05:52:58;50.67;;;13.48;;
61523;SDS011;47393;38.758;-9.164;2023-03-16T05:54:59;47.65;;;14.38;;
61523;SDS011;47393;38.758;-9.164;2023-03-16T05:57:13;37.13;;;12.32;;
61523;SDS011;47393;38.758;-9.164;2023-03-16T05:59:16;45.60;;;12.65;;
61523;SDS011;47393;38.758;-9.164;2023-03-16T06:01:29;49.67;;;12.82;;
61523;SDS011;47393;38.758;-9.164;2023-03-16T06:03:40;48.28;;;13.95;;
61523;SDS011;47393;38.758;-9.164;2023-03-16T06:05:53;67.90;;;16.80;;
61523;SDS011;47393;38.758;-9.164;2023-03-16T06:08:32;54.70;;;15.20;;
61523;SDS011;47393;38.758;-9.164;2023-03-16T06:10:40;48.72;;;14.68;;
61523;SDS011;47393;38.758;-9.164;2023-03-16T06:12:41;58.00;;;15.43;;
61523;SDS011;47393;38.758;-9.164;2023-03-16T06:14:43;61.53;;;17.33;;
61523;SDS011;47393;38.758;-9.164;2023-03-16T06:16:44;51.05;;;15.18;;
61523;SDS011;47393;38.758;-9.164;2023-03-16T06:18:46;64.15;;;15.93;;
61523;SDS011;47393;38.758;-9.164;2023-03-16T06:20:46;61.60;;;16.08;;
61523;SDS011;47393;38.758;-9.164;2023-03-16T06:22:49;55.92;;;14.63;;
61523;SDS011;47393;38.758;-9.164;2023-03-16T06:24:50;39.72;;;14.05;;
61523;SDS011;47393;38.758;-9.164;2023-03-16T06:26:53;54.72;;;15.20;;
61523;SDS011;47393;38.758;-9.164;2023-03-16T06:28:56;62.80;;;14.52;;
61523;SDS011;47393;38.758;-9.164;2023-03-16T06:30:59;63.80;;;14.60;;
61523;SDS011;47393;38.758;-9.164;2023-03-16T06:33:05;60.30;;;15.95;;
61523;SDS011;47393;38.758;-9.164;2023-03-16T06:35:11;62.65;;;16.13;;
61523;SDS011;47393;38.758;-9.164;2023-03-16T06:37:22;57.25;;;15.00;;
61523;SDS011;47393;38.758;-9.164;2023-03-16T06:41:39;42.35;;;13.65;;
61523;SDS011;47393;38.758;-9.164;2023-03-16T06:43:54;52.30;;;16.20;;
61523;SDS011;47393;38.758;-9.164;2023-03-16T06:45:55;62.97;;;15.52;;
61523;SDS011;47393;38.758;-9.164;2023-03-16T06:47:59;62.25;;;16.10;;
61523;SDS011;47393;38.758;-9.164;2023-03-16T06:50:07;53.75;;;16.88;;
61523;SDS011;47393;38.758;-9.164;2023-03-16T06:52:25;52.47;;;15.10;;
61523;SDS011;47393;38.758;-9.164;2023-03-16T06:54:44;54.03;;;15.90;;
61523;SDS011;47393;38.758;-9.164;2023-03-16T06:59:48;48.65;;;15.07;;
61523;SDS011;47393;38.758;-9.164;2023-03-16T07:04:33;54.45;;;17.08;;
61523;SDS011;47393;38.758;-9.164;2023-03-16T07:06:34;52.97;;;16.70;;
61523;SDS011;47393;38.758;-9.164;2023-03-16T07:08:35;69.25;;;17.73;;
61523;SDS011;47393;38.758;-9.164;2023-03-16T07:10:38;71.15;;;17.85;;
61523;SDS011;47393;38.758;-9.164;2023-03-16T07:12:40;65.47;;;16.52;;
61523;SDS011;47393;38.758;-9.164;2023-03-16T07:14:42;69.38;;;15.65;;
61523;SDS011;47393;38.758;-9.164;2023-03-16T07:16:53;46.75;;;15.23;;
61523;SDS011;47393;38.758;-9.164;2023-03-16T07:19:04;43.67;;;13.43;;
61523;SDS011;47393;38.758;-9.164;2023-03-16T07:27:10;48.10;;;11.35;;
61523;SDS011;47393;38.758;-9.164;2023-03-16T07:32:56;34.40;;;9.10;;
61523;SDS011;47393;38.758;-9.164;2023-03-16T07:42:47;35.10;;;9.50;;
61523;SDS011;47393;38.758;-9.164;2023-03-16T07:52:45;45.42;;;8.95;;
61523;SDS011;47393;38.758;-9.164;2023-03-16T08:02:32;48.83;;;9.88;;
61523;SDS011;47393;38.758;-9.164;2023-03-16T08:04:36;23.00;;;9.88;;
61523;SDS011;47393;38.758;-9.164;2023-03-16T08:06:43;30.55;;;10.43;;
61523;SDS011;47393;38.758;-9.164;2023-03-16T08:08:53;30.30;;;10.77;;
61523;SDS011;47393;38.758;-9.164;2023-03-16T08:11:22;35.78;;;10.25;;
61523;SDS011;47393;38.758;-9.164;2023-03-16T08:13:45;30.15;;;10.27;;
61523;SDS011;47393;38.758;-9.164;2023-03-16T08:19:03;25.50;;;10.57;;
61523;SDS011;47393;38.758;-9.164;2023-03-16T08:21:28;20.33;;;9.32;;
61523;SDS011;47393;38.758;-9.164;2023-03-16T08:23:52;20.98;;;8.82;;
61523;SDS011;47393;38.758;-9.164;2023-03-16T08:26:31;27.88;;;8.85;;
61523;SDS011;47393;38.758;-9.164;2023-03-16T08:28:52;21.77;;;9.00;;
61523;SDS011;47393;38.758;-9.164;2023-03-16T08:31:28;21.98;;;8.40;;
61523;SDS011;47393;38.758;-9.164;2023-03-16T08:34:03;25.88;;;9.02;;
61523;SDS011;47393;38.758;-9.164;2023-03-16T08:36:37;24.88;;;8.10;;
61523;SDS011;47393;38.758;-9.164;2023-03-16T08:38:43;24.77;;;8.98;;
61523;SDS011;47393;38.758;-9.164;2023-03-16T08:40:49;26.17;;;8.93;;
61523;SDS011;47393;38.758;-9.164;2023-03-16T08:42:57;23.08;;;8.75;;
61523;SDS011;47393;38.758;-9.164;2023-03-16T08:45:06;29.48;;;8.93;;
61523;SDS011;47393;38.758;-9.164;2023-03-16T08:47:38;27.55;;;8.43;;
61523;SDS011;47393;38.758;-9.164;2023-03-16T08:52:06;24.27;;;8.10;;
61523;SDS011;47393;38.758;-9.164;2023-03-16T08:54:35;30.15;;;9.60;;
61523;SDS011;47393;38.758;-9.164;2023-03-16T08:56:42;28.42;;;9.85;;
61523;SDS011;47393;38.758;-9.164;2023-03-16T08:58:53;25.65;;;9.88;;
61523;SDS011;47393;38.758;-9.164;2023-03-16T09:01:12;30.40;;;11.13;;
61523;SDS011;47393;38.758;-9.164;2023-03-16T09:03:41;27.60;;;10.55;;
61523;SDS011;47393;38.758;-9.164;2023-03-16T09:06:18;30.52;;;9.52;;
61523;SDS011;47393;38.758;-9.164;2023-03-16T09:08:48;38.53;;;9.55;;
61523;SDS011;47393;38.758;-9.164;2023-03-16T09:11:16;25.45;;;9.73;;
61523;SDS011;47393;38.758;-9.164;2023-03-16T09:13:37;33.33;;;9.80;;
61523;SDS011;47393;38.758;-9.164;2023-03-16T09:16:05;29.33;;;9.95;;
61523;SDS011;47393;38.758;-9.164;2023-03-16T09:18:13;29.73;;;9.30;;
61523;SDS011;47393;38.758;-9.164;2023-03-16T09:20:16;33.00;;;9.70;;
61523;SDS011;47393;38.758;-9.164;2023-03-16T09:22:22;37.17;;;9.95;;
61523;SDS011;47393;38.758;-9.164;2023-03-16T09:24:29;32.60;;;9.82;;
61523;SDS011;47393;38.758;-9.164;2023-03-16T09:26:31;31.48;;;9.25;;
61523;SDS011;47393;38.758;-9.164;2023-03-16T09:28:36;26.23;;;9.95;;
61523;SDS011;47393;38.758;-9.164;2023-03-16T09:30:41;33.47;;;9.90;;
61523;SDS011;47393;38.758;-9.164;2023-03-16T09:32:43;30.88;;;8.63;;
61523;SDS011;47393;38.758;-9.164;2023-03-16T09:34:49;26.00;;;8.68;;
61523;SDS011;47393;38.758;-9.164;2023-03-16T09:36:51;23.38;;;7.57;;
61523;SDS011;47393;38.758;-9.164;2023-03-16T09:39:00;28.92;;;7.43;;
61523;SDS011;47393;38.758;-9.164;2023-03-16T09:47:31;24.63;;;7.22;;
61523;SDS011;47393;38.758;-9.164;2023-03-16T09:49:46;25.23;;;6.50;;
61523;SDS011;47393;38.758;-9.164;2023-03-16T09:56:42;23.77;;;6.40;;
61523;SDS011;47393;38.758;-9.164;2023-03-16T09:59:00;18.70;;;6.45;;
61523;SDS011;47393;38.758;-9.164;2023-03-16T10:10:47;23.05;;;5.20;;
61523;SDS011;47393;38.758;-9.164;2023-03-16T10:13:29;14.77;;;6.00;;
61523;SDS011;47393;38.758;-9.164;2023-03-16T10:16:14;14.30;;;5.70;;
61523;SDS011;47393;38.758;-9.164;2023-03-16T10:19:04;19.55;;;6.10;;
61523;SDS011;47393;38.758;-9.164;2023-03-16T10:21:53;18.70;;;5.95;;
61523;SDS011;47393;38.758;-9.164;2023-03-16T10:27:13;23.20;;;6.90;;
61523;SDS011;47393;38.758;-9.164;2023-03-16T10:29:51;20.25;;;5.57;;
61523;SDS011;47393;38.758;-9.164;2023-03-16T10:32:24;20.60;;;6.00;;
61523;SDS011;47393;38.758;-9.164;2023-03-16T10:35:21;23.95;;;6.45;;
61523;SDS011;47393;38.758;-9.164;2023-03-16T10:38:03;20.20;;;6.07;;
61523;SDS011;47393;38.758;-9.164;2023-03-16T10:40:38;22.15;;;6.70;;
61523;SDS011;47393;38.758;-9.164;2023-03-16T10:43:12;13.45;;;5.45;;
61523;SDS011;47393;38.758;-9.164;2023-03-16T10:45:47;14.75;;;5.03;;
61523;SDS011;47393;38.758;-9.164;2023-03-16T10:48:30;15.93;;;5.35;;
61523;SDS011;47393;38.758;-9.164;2023-03-16T10:51:12;14.25;;;5.07;;
61523;SDS011;47393;38.758;-9.164;2023-03-16T10:53:46;18.40;;;5.25;;
61523;SDS011;47393;38.758;-9.164;2023-03-16T10:56:30;14.40;;;4.90;;
61523;SDS011;47393;38.758;-9.164;2023-03-16T10:59:26;9.63;;;4.05;;
61523;SDS011;47393;38.758;-9.164;2023-03-16T11:02:19;17.45;;;5.13;;
61523;SDS011;47393;38.758;-9.164;2023-03-16T11:04:55;13.40;;;4.40;;
61523;SDS011;47393;38.758;-9.164;2023-03-16T11:07:45;11.73;;;3.78;;
61523;SDS011;47393;38.758;-9.164;2023-03-16T11:10:44;10.10;;;4.00;;
61523;SDS011;47393;38.758;-9.164;2023-03-16T11:13:42;17.08;;;5.30;;
61523;SDS011;47393;38.758;-9.164;2023-03-16T11:19:44;17.90;;;5.13;;
61523;SDS011;47393;38.758;-9.164;2023-03-16T11:22:32;10.52;;;4.13;;
61523;SDS011;47393;38.758;-9.164;2023-03-16T11:28:37;22.20;;;4.53;;
61523;SDS011;47393;38.758;-9.164;2023-03-16T11:34:34;18.17;;;5.07;;
61523;SDS011;47393;38.758;-9.164;2023-03-16T11:37:37;13.43;;;4.03;;
61523;SDS011;47393;38.758;-9.164;2023-03-16T11:47:04;15.15;;;4.43;;
61523;SDS011;47393;38.758;-9.164;2023-03-16T11:52:16;21.23;;;5.28;;
61523;SDS011;47393;38.758;-9.164;2023-03-16T12:14:23;14.20;;;5.25;;
61523;SDS011;47393;38.758;-9.164;2023-03-16T12:27:16;8.93;;;4.35;;
61523;SDS011;47393;38.758;-9.164;2023-03-16T12:33:33;21.20;;;4.83;;
61523;SDS011;47393;38.758;-9.164;2023-03-16T13:45:06;19.45;;;4.90;;
61523;SDS011;47393;38.758;-9.164;2023-03-16T13:48:02;16.55;;;5.15;;
61523;SDS011;47393;38.758;-9.164;2023-03-16T13:50:59;24.33;;;4.90;;
61523;SDS011;47393;38.758;-9.164;2023-03-16T14:22:11;17.80;;;4.03;;
61523;SDS011;47393;38.758;-9.164;2023-03-16T14:37:48;17.40;;;4.93;;
61523;SDS011;47393;38.758;-9.164;2023-03-16T14:40:37;20.35;;;4.05;;
61523;SDS011;47393;38.758;-9.164;2023-03-16T14:46:14;18.00;;;4.75;;
61523;SDS011;47393;38.758;-9.164;2023-03-16T14:48:58;19.33;;;4.30;;
61523;SDS011;47393;38.758;-9.164;2023-03-16T14:51:11;8.80;;;3.63;;
61523;SDS011;47393;38.758;-9.164;2023-03-16T14:53:21;20.25;;;4.05;;
61523;SDS011;47393;38.758;-9.164;2023-03-16T14:55:38;12.35;;;3.90;;
61523;SDS011;47393;38.758;-9.164;2023-03-16T14:58:26;12.20;;;3.60;;
61523;SDS011;47393;38.758;-9.164;2023-03-16T15:01:04;9.30;;;3.83;;
61523;SDS011;47393;38.758;-9.164;2023-03-16T15:03:14;19.35;;;3.83;;
61523;SDS011;47393;38.758;-9.164;2023-03-16T15:06:07;10.90;;;3.47;;
61523;SDS011;47393;38.758;-9.164;2023-03-16T15:08:33;10.23;;;3.47;;
61523;SDS011;47393;38.758;-9.164;2023-03-16T15:18:02;16.40;;;4.17;;
61523;SDS011;47393;38.758;-9.164;2023-03-16T15:24:17;14.60;;;4.35;;
61523;SDS011;47393;38.758;-9.164;2023-03-16T15:26:59;15.20;;;4.68;;
61523;SDS011;47393;38.758;-9.164;2023-03-16T15:32:16;17.38;;;4.40;;
61523;SDS011;47393;38.758;-9.164;2023-03-16T15:41:14;11.18;;;3.13;;
61523;SDS011;47393;38.758;-9.164;2023-03-16T15:43:28;19.50;;;4.10;;
61523;SDS011;47393;38.758;-9.164;2023-03-16T15:45:37;19.55;;;4.43;;
61523;SDS011;47393;38.758;-9.164;2023-03-16T15:50:49;16.77;;;3.05;;
61523;SDS011;47393;38.758;-9.164;2023-03-16T15:56:03;12.07;;;2.85;;
61523;SDS011;47393;38.758;-9.164;2023-03-16T15:58:32;8.35;;;2.55;;
61523;SDS011;47393;38.758;-9.164;2023-03-16T16:00:52;16.60;;;3.25;;
61523;SDS011;47393;38.758;-9.164;2023-03-16T16:03:02;20.63;;;3.53;;
61523;SDS011;47393;38.758;-9.164;2023-03-16T16:05:12;12.38;;;3.10;;
61523;SDS011;47393;38.758;-9.164;2023-03-16T16:07:17;11.43;;;2.63;;
61523;SDS011;47393;38.758;-9.164;2023-03-16T16:09:22;12.27;;;3.15;;
61523;SDS011;47393;38.758;-9.164;2023-03-16T16:11:26;12.20;;;2.83;;
61523;SDS011;47393;38.758;-9.164;2023-03-16T16:13:30;15.52;;;3.47;;
61523;SDS011;47393;38.758;-9.164;2023-03-16T16:15:34;13.93;;;2.80;;
61523;SDS011;47393;38.758;-9.164;2023-03-16T16:17:39;15.73;;;3.15;;
61523;SDS011;47393;38.758;-9.164;2023-03-16T16:19:41;21.17;;;4.35;;
61523;SDS011;47393;38.758;-9.164;2023-03-16T16:21:42;14.65;;;3.17;;
61523;SDS011;47393;38.758;-9.164;2023-03-16T16:23:46;17.60;;;4.13;;
61523;SDS011;47393;38.758;-9.164;2023-03-16T16:25:48;16.55;;;3.42;;
61523;SDS011;47393;38.758;-9.164;2023-03-16T16:27:50;13.80;;;3.22;;
61523;SDS011;47393;38.758;-9.164;2023-03-16T16:29:51;14.50;;;3.38;;
61523;SDS011;47393;38.758;-9.164;2023-03-16T16:31:54;11.18;;;3.55;;
61523;SDS011;47393;38.758;-9.164;2023-03-16T16:33:58;21.05;;;4.57;;
61523;SDS011;47393;38.758;-9.164;2023-03-16T16:36:00;19.58;;;3.15;;
61523;SDS011;47393;38.758;-9.164;2023-03-16T16:38:01;19.40;;;3.60;;
61523;SDS011;47393;38.758;-9.164;2023-03-16T16:40:06;10.20;;;2.72;;
61523;SDS011;47393;38.758;-9.164;2023-03-16T16:42:11;17.58;;;4.03;;
61523;SDS011;47393;38.758;-9.164;2023-03-16T16:44:26;22.73;;;4.22;;
61523;SDS011;47393;38.758;-9.164;2023-03-16T16:46:35;14.73;;;3.03;;
61523;SDS011;47393;38.758;-9.164;2023-03-16T16:48:41;15.95;;;3.65;;
61523;SDS011;47393;38.758;-9.164;2023-03-16T16:50:42;22.02;;;3.90;;
61523;SDS011;47393;38.758;-9.164;2023-03-16T16:52:43;23.80;;;3.58;;
61523;SDS011;47393;38.758;-9.164;2023-03-16T16:54:47;14.32;;;3.90;;
61523;SDS011;47393;38.758;-9.164;2023-03-16T16:56:48;14.95;;;3.58;;
61523;SDS011;47393;38.758;-9.164;2023-03-16T16:58:53;14.10;;;3.40;;
61523;SDS011;47393;38.758;-9.164;2023-03-16T17:00:57;15.90;;;3.70;;
61523;SDS011;47393;38.758;-9.164;2023-03-16T17:02:59;18.13;;;4.45;;
61523;SDS011;47393;38.758;-9.164;2023-03-16T17:05:03;15.70;;;3.88;;
61523;SDS011;47393;38.758;-9.164;2023-03-16T17:09:32;17.77;;;4.20;;
61523;SDS011;47393;38.758;-9.164;2023-03-16T17:11:33;16.88;;;3.55;;
61523;SDS011;47393;38.758;-9.164;2023-03-16T17:13:37;21.33;;;5.13;;
61523;SDS011;47393;38.758;-9.164;2023-03-16T17:15:43;11.27;;;2.63;;
61523;SDS011;47393;38.758;-9.164;2023-03-16T17:20:47;15.23;;;3.28;;
61523;SDS011;47393;38.758;-9.164;2023-03-16T17:23:32;12.43;;;2.88;;
61523;SDS011;47393;38.758;-9.164;2023-03-16T17:28:57;18.35;;;3.03;;
61523;SDS011;47393;38.758;-9.164;2023-03-16T17:30:59;24.20;;;6.28;;
61523;SDS011;47393;38.758;-9.164;2023-03-16T17:33:34;17.85;;;4.07;;
61523;SDS011;47393;38.758;-9.164;2023-03-16T17:35:45;15.02;;;2.92;;
61523;SDS011;47393;38.758;-9.164;2023-03-16T17:38:14;17.45;;;3.50;;
61523;SDS011;47393;38.758;-9.164;2023-03-16T17:40:31;19.38;;;4.10;;
61523;SDS011;47393;38.758;-9.164;2023-03-16T17:42:42;14.63;;;3.22;;
61523;SDS011;47393;38.758;-9.164;2023-03-16T17:44:56;10.25;;;2.72;;
61523;SDS011;47393;38.758;-9.164;2023-03-16T17:46:59;23.23;;;4.60;;
61523;SDS011;47393;38.758;-9.164;2023-03-16T17:49:04;18.92;;;3.88;;
61523;SDS011;47393;38.758;-9.164;2023-03-16T17:51:11;14.88;;;4.38;;
61523;SDS011;47393;38.758;-9.164;2023-03-16T17:53:16;13.95;;;2.97;;
61523;SDS011;47393;38.758;-9.164;2023-03-16T17:55:18;17.25;;;3.55;;
61523;SDS011;47393;38.758;-9.164;2023-03-16T17:57:27;9.55;;;3.65;;
61523;SDS011;47393;38.758;-9.164;2023-03-16T17:59:28;22.15;;;4.03;;
61523;SDS011;47393;38.758;-9.164;2023-03-16T18:01:30;8.57;;;2.97;;
61523;SDS011;47393;38.758;-9.164;2023-03-16T18:03:38;8.13;;;3.03;;
61523;SDS011;47393;38.758;-9.164;2023-03-16T18:05:42;10.02;;;2.38;;
61523;SDS011;47393;38.758;-9.164;2023-03-16T18:07:46;3.72;;;1.80;;
61523;SDS011;47393;38.758;-9.164;2023-03-16T18:10:12;8.93;;;2.30;;
61523;SDS011;47393;38.758;-9.164;2023-03-16T18:12:14;3.80;;;2.38;;
61523;SDS011;47393;38.758;-9.164;2023-03-16T18:14:40;10.82;;;2.33;;
61523;SDS011;47393;38.758;-9.164;2023-03-16T18:16:52;5.85;;;2.47;;
61523;SDS011;47393;38.758;-9.164;2023-03-16T18:19:13;7.28;;;2.80;;
61523;SDS011;47393;38.758;-9.164;2023-03-16T18:21:25;8.30;;;2.85;;
61523;SDS011;47393;38.758;-9.164;2023-03-16T18:23:36;7.90;;;2.55;;
61523;SDS011;47393;38.758;-9.164;2023-03-16T18:25:42;13.05;;;3.00;;
61523;SDS011;47393;38.758;-9.164;2023-03-16T18:27:46;11.13;;;3.03;;
61523;SDS011;47393;38.758;-9.164;2023-03-16T18:29:51;17.38;;;3.00;;
61523;SDS011;47393;38.758;-9.164;2023-03-16T18:32:20;13.57;;;3.65;;
61523;SDS011;47393;38.758;-9.164;2023-03-16T18:34:23;11.60;;;4.10;;
61523;SDS011;47393;38.758;-9.164;2023-03-16T18:36:32;15.30;;;3.85;;
61523;SDS011;47393;38.758;-9.164;2023-03-16T18:43:49;16.55;;;3.17;;
61523;SDS011;47393;38.758;-9.164;2023-03-16T18:46:17;9.48;;;3.15;;
61523;SDS011;47393;38.758;-9.164;2023-03-16T18:51:51;14.95;;;2.67;;
61523;SDS011;47393;38.758;-9.164;2023-03-16T18:54:32;13.95;;;3.75;;
61523;SDS011;47393;38.758;-9.164;2023-03-16T18:56:39;23.88;;;3.63;;
61523;SDS011;47393;38.758;-9.164;2023-03-16T19:12:00;22.13;;;2.88;;
61523;SDS011;47393;38.758;-9.164;2023-03-16T19:14:17;9.75;;;2.88;;
61523;SDS011;47393;38.758;-9.164;2023-03-16T19:16:38;11.88;;;3.17;;
61523;SDS011;47393;38.758;-9.164;2023-03-16T19:35:12;12.73;;;3.70;;